sensor_id;sensor_type;location;lat;lon;timestamp;P1;durP1;ratioP1;P2;durP2;ratioP2
52858;SDS011;38721;53.098;6.596;2023-03-14T00:01:12;24.83;;;4.82;;
52858;SDS011;38721;53.098;6.596;2023-03-14T00:03:43;22.55;;;4.82;;
52858;SDS011;38721;53.098;6.596;2023-03-14T00:06:09;25.92;;;4.47;;
52858;SDS011;38721;53.098;6.596;2023-03-14T00:08:35;25.88;;;5.28;;
52858;SDS011;38721;53.098;6.596;2023-03-14T00:11:05;28.00;;;5.70;;
52858;SDS011;38721;53.098;6.596;2023-03-14T00:13:33;20.27;;;5.00;;
52858;SDS011;38721;53.098;6.596;2023-03-14T00:16:05;20.38;;;5.03;;
52858;SDS011;38721;53.098;6.596;2023-03-14T00:18:33;21.55;;;5.90;;
52858;SDS011;38721;53.098;6.596;2023-03-14T00:21:00;24.38;;;4.63;;
52858;SDS011;38721;53.098;6.596;2023-03-14T00:23:30;23.70;;;5.10;;
52858;SDS011;38721;53.098;6.596;2023-03-14T00:28:52;20.88;;;5.40;;
52858;SDS011;38721;53.098;6.596;2023-03-14T00:31:18;22.92;;;5.38;;
52858;SDS011;38721;53.098;6.596;2023-03-14T00:33:44;18.92;;;4.80;;
52858;SDS011;38721;53.098;6.596;2023-03-14T00:36:15;23.13;;;5.32;;
52858;SDS011;38721;53.098;6.596;2023-03-14T00:38:41;19.05;;;5.18;;
52858;SDS011;38721;53.098;6.596;2023-03-14T00:41:13;20.73;;;4.55;;
52858;SDS011;38721;53.098;6.596;2023-03-14T00:43:41;19.88;;;4.80;;
52858;SDS011;38721;53.098;6.596;2023-03-14T00:46:07;15.93;;;4.15;;
52858;SDS011;38721;53.098;6.596;2023-03-14T00:48:33;20.48;;;4.53;;
52858;SDS011;38721;53.098;6.596;2023-03-14T00:51:00;19.25;;;4.32;;
52858;SDS011;38721;53.098;6.596;2023-03-14T00:53:26;20.50;;;5.32;;
52858;SDS011;38721;53.098;6.596;2023-03-14T00:55:51;20.48;;;4.57;;
52858;SDS011;38721;53.098;6.596;2023-03-14T00:58:18;19.73;;;5.00;;
52858;SDS011;38721;53.098;6.596;2023-03-14T01:00:44;20.08;;;4.47;;
52858;SDS011;38721;53.098;6.596;2023-03-14T01:03:10;15.27;;;4.28;;
52858;SDS011;38721;53.098;6.596;2023-03-14T01:05:37;17.55;;;3.90;;
52858;SDS011;38721;53.098;6.596;2023-03-14T01:08:03;16.38;;;4.20;;
52858;SDS011;38721;53.098;6.596;2023-03-14T01:10:30;21.27;;;4.85;;
52858;SDS011;38721;53.098;6.596;2023-03-14T01:12:56;19.40;;;4.68;;
52858;SDS011;38721;53.098;6.596;2023-03-14T01:15:21;16.98;;;4.18;;
52858;SDS011;38721;53.098;6.596;2023-03-14T01:17:47;19.02;;;4.45;;
52858;SDS011;38721;53.098;6.596;2023-03-14T01:20:13;17.15;;;4.38;;
52858;SDS011;38721;53.098;6.596;2023-03-14T01:22:40;21.02;;;4.78;;
52858;SDS011;38721;53.098;6.596;2023-03-14T01:25:08;20.33;;;4.30;;
52858;SDS011;38721;53.098;6.596;2023-03-14T01:27:35;21.98;;;5.47;;
52858;SDS011;38721;53.098;6.596;2023-03-14T01:30:02;21.95;;;4.43;;
52858;SDS011;38721;53.098;6.596;2023-03-14T01:32:29;15.63;;;4.32;;
52858;SDS011;38721;53.098;6.596;2023-03-14T01:34:54;20.00;;;4.50;;
52858;SDS011;38721;53.098;6.596;2023-03-14T01:37:20;20.85;;;4.68;;
52858;SDS011;38721;53.098;6.596;2023-03-14T01:39:48;11.05;;;3.75;;
52858;SDS011;38721;53.098;6.596;2023-03-14T01:42:14;14.90;;;4.28;;
52858;SDS011;38721;53.098;6.596;2023-03-14T01:44:48;14.25;;;3.60;;
52858;SDS011;38721;53.098;6.596;2023-03-14T01:47:16;16.75;;;3.72;;
52858;SDS011;38721;53.098;6.596;2023-03-14T01:49:42;11.15;;;3.63;;
52858;SDS011;38721;53.098;6.596;2023-03-14T01:52:22;20.40;;;3.80;;
52858;SDS011;38721;53.098;6.596;2023-03-14T01:54:53;15.68;;;3.33;;
52858;SDS011;38721;53.098;6.596;2023-03-14T02:00:01;13.10;;;3.70;;
52858;SDS011;38721;53.098;6.596;2023-03-14T02:02:39;12.18;;;3.40;;
52858;SDS011;38721;53.098;6.596;2023-03-14T02:05:08;15.85;;;3.95;;
52858;SDS011;38721;53.098;6.596;2023-03-14T02:10:08;14.40;;;3.28;;
52858;SDS011;38721;53.098;6.596;2023-03-14T02:12:35;12.55;;;3.20;;
52858;SDS011;38721;53.098;6.596;2023-03-14T02:15:02;12.18;;;3.53;;
52858;SDS011;38721;53.098;6.596;2023-03-14T02:17:28;11.50;;;2.85;;
52858;SDS011;38721;53.098;6.596;2023-03-14T02:19:57;13.77;;;3.58;;
52858;SDS011;38721;53.098;6.596;2023-03-14T02:22:33;12.05;;;3.50;;
52858;SDS011;38721;53.098;6.596;2023-03-14T02:27:31;12.32;;;3.20;;
52858;SDS011;38721;53.098;6.596;2023-03-14T02:30:00;12.52;;;3.35;;
52858;SDS011;38721;53.098;6.596;2023-03-14T02:32:29;11.15;;;2.90;;
52858;SDS011;38721;53.098;6.596;2023-03-14T02:34:58;11.20;;;2.70;;
52858;SDS011;38721;53.098;6.596;2023-03-14T02:37:30;15.07;;;3.25;;
52858;SDS011;38721;53.098;6.596;2023-03-14T02:40:03;14.52;;;3.20;;
52858;SDS011;38721;53.098;6.596;2023-03-14T02:42:30;7.85;;;2.92;;
52858;SDS011;38721;53.098;6.596;2023-03-14T02:47:33;12.13;;;3.45;;
52858;SDS011;38721;53.098;6.596;2023-03-14T02:50:04;9.43;;;2.50;;
52858;SDS011;38721;53.098;6.596;2023-03-14T02:52:33;13.38;;;3.03;;
52858;SDS011;38721;53.098;6.596;2023-03-14T02:54:58;9.05;;;2.40;;
52858;SDS011;38721;53.098;6.596;2023-03-14T02:57:24;11.70;;;2.72;;
52858;SDS011;38721;53.098;6.596;2023-03-14T02:59:50;9.85;;;2.70;;
52858;SDS011;38721;53.098;6.596;2023-03-14T03:02:15;9.30;;;2.67;;
52858;SDS011;38721;53.098;6.596;2023-03-14T03:04:44;9.10;;;2.80;;
52858;SDS011;38721;53.098;6.596;2023-03-14T03:07:10;11.05;;;2.80;;
52858;SDS011;38721;53.098;6.596;2023-03-14T03:09:35;12.23;;;2.63;;
52858;SDS011;38721;53.098;6.596;2023-03-14T03:12:01;9.27;;;3.20;;
52858;SDS011;38721;53.098;6.596;2023-03-14T03:14:27;8.60;;;3.08;;
52858;SDS011;38721;53.098;6.596;2023-03-14T03:16:52;9.30;;;2.75;;
52858;SDS011;38721;53.098;6.596;2023-03-14T03:19:18;11.18;;;3.30;;
52858;SDS011;38721;53.098;6.596;2023-03-14T03:21:47;13.07;;;2.97;;
52858;SDS011;38721;53.098;6.596;2023-03-14T03:24:13;10.38;;;3.60;;
52858;SDS011;38721;53.098;6.596;2023-03-14T03:26:39;9.32;;;2.95;;
52858;SDS011;38721;53.098;6.596;2023-03-14T03:29:04;13.02;;;3.10;;
52858;SDS011;38721;53.098;6.596;2023-03-14T03:31:30;12.05;;;3.55;;
52858;SDS011;38721;53.098;6.596;2023-03-14T03:33:56;15.02;;;4.28;;
52858;SDS011;38721;53.098;6.596;2023-03-14T03:36:22;16.08;;;4.78;;
52858;SDS011;38721;53.098;6.596;2023-03-14T03:38:50;15.80;;;4.90;;
52858;SDS011;38721;53.098;6.596;2023-03-14T03:41:15;21.17;;;5.20;;
52858;SDS011;38721;53.098;6.596;2023-03-14T03:43:41;12.55;;;5.20;;
52858;SDS011;38721;53.098;6.596;2023-03-14T03:46:07;17.25;;;6.20;;
52858;SDS011;38721;53.098;6.596;2023-03-14T03:48:34;17.70;;;5.75;;
52858;SDS011;38721;53.098;6.596;2023-03-14T03:51:00;17.45;;;5.28;;
52858;SDS011;38721;53.098;6.596;2023-03-14T03:53:25;14.88;;;5.38;;
52858;SDS011;38721;53.098;6.596;2023-03-14T03:55:51;16.65;;;5.78;;
52858;SDS011;38721;53.098;6.596;2023-03-14T03:58:20;17.40;;;5.53;;
52858;SDS011;38721;53.098;6.596;2023-03-14T04:00:45;16.25;;;5.32;;
52858;SDS011;38721;53.098;6.596;2023-03-14T04:03:11;16.00;;;5.70;;
52858;SDS011;38721;53.098;6.596;2023-03-14T04:05:37;14.52;;;5.43;;
52858;SDS011;38721;53.098;6.596;2023-03-14T04:08:03;18.63;;;5.60;;
52858;SDS011;38721;53.098;6.596;2023-03-14T04:10:29;16.80;;;5.53;;
52858;SDS011;38721;53.098;6.596;2023-03-14T04:12:55;14.95;;;6.07;;
52858;SDS011;38721;53.098;6.596;2023-03-14T04:15:20;14.18;;;6.13;;
52858;SDS011;38721;53.098;6.596;2023-03-14T04:17:46;14.90;;;6.82;;
52858;SDS011;38721;53.098;6.596;2023-03-14T04:20:12;16.73;;;6.10;;
52858;SDS011;38721;53.098;6.596;2023-03-14T04:22:38;17.40;;;6.65;;
52858;SDS011;38721;53.098;6.596;2023-03-14T04:25:04;15.13;;;5.60;;
52858;SDS011;38721;53.098;6.596;2023-03-14T04:27:31;14.32;;;6.40;;
52858;SDS011;38721;53.098;6.596;2023-03-14T04:29:56;13.02;;;5.95;;
52858;SDS011;38721;53.098;6.596;2023-03-14T04:32:22;15.13;;;7.20;;
52858;SDS011;38721;53.098;6.596;2023-03-14T04:34:47;12.13;;;6.40;;
52858;SDS011;38721;53.098;6.596;2023-03-14T04:37:14;15.98;;;6.57;;
52858;SDS011;38721;53.098;6.596;2023-03-14T04:39:39;15.07;;;7.47;;
52858;SDS011;38721;53.098;6.596;2023-03-14T04:42:06;14.75;;;6.85;;
52858;SDS011;38721;53.098;6.596;2023-03-14T04:44:31;17.80;;;6.55;;
52858;SDS011;38721;53.098;6.596;2023-03-14T04:46:57;18.30;;;6.72;;
52858;SDS011;38721;53.098;6.596;2023-03-14T04:49:23;20.85;;;7.15;;
52858;SDS011;38721;53.098;6.596;2023-03-14T04:51:49;19.25;;;6.32;;
52858;SDS011;38721;53.098;6.596;2023-03-14T04:54:20;17.17;;;6.07;;
52858;SDS011;38721;53.098;6.596;2023-03-14T04:56:46;15.50;;;6.07;;
52858;SDS011;38721;53.098;6.596;2023-03-14T04:59:12;17.42;;;6.35;;
52858;SDS011;38721;53.098;6.596;2023-03-14T05:01:38;10.27;;;5.78;;
52858;SDS011;38721;53.098;6.596;2023-03-14T05:04:03;13.60;;;5.68;;
52858;SDS011;38721;53.098;6.596;2023-03-14T05:06:29;12.45;;;5.65;;
52858;SDS011;38721;53.098;6.596;2023-03-14T05:08:54;15.75;;;6.45;;
52858;SDS011;38721;53.098;6.596;2023-03-14T05:11:23;11.73;;;5.72;;
52858;SDS011;38721;53.098;6.596;2023-03-14T05:13:49;13.20;;;5.30;;
52858;SDS011;38721;53.098;6.596;2023-03-14T05:16:14;16.30;;;6.30;;
52858;SDS011;38721;53.098;6.596;2023-03-14T05:18:40;12.57;;;6.60;;
52858;SDS011;38721;53.098;6.596;2023-03-14T05:21:05;18.30;;;6.78;;
52858;SDS011;38721;53.098;6.596;2023-03-14T05:23:31;16.80;;;6.70;;
52858;SDS011;38721;53.098;6.596;2023-03-14T05:25:57;15.55;;;6.85;;
52858;SDS011;38721;53.098;6.596;2023-03-14T05:28:23;15.75;;;6.63;;
52858;SDS011;38721;53.098;6.596;2023-03-14T05:30:48;19.00;;;6.47;;
52858;SDS011;38721;53.098;6.596;2023-03-14T05:33:14;14.50;;;6.20;;
52858;SDS011;38721;53.098;6.596;2023-03-14T05:35:40;15.10;;;6.60;;
52858;SDS011;38721;53.098;6.596;2023-03-14T05:38:06;13.40;;;6.03;;
52858;SDS011;38721;53.098;6.596;2023-03-14T05:40:32;20.00;;;7.18;;
52858;SDS011;38721;53.098;6.596;2023-03-14T05:42:58;18.95;;;7.20;;
52858;SDS011;38721;53.098;6.596;2023-03-14T05:45:24;16.25;;;6.57;;
52858;SDS011;38721;53.098;6.596;2023-03-14T05:47:50;15.00;;;6.93;;
52858;SDS011;38721;53.098;6.596;2023-03-14T05:50:15;22.33;;;6.75;;
52858;SDS011;38721;53.098;6.596;2023-03-14T05:52:47;15.18;;;6.72;;
52858;SDS011;38721;53.098;6.596;2023-03-14T05:55:12;17.02;;;5.90;;
52858;SDS011;38721;53.098;6.596;2023-03-14T05:57:38;14.52;;;7.05;;
52858;SDS011;38721;53.098;6.596;2023-03-14T06:00:04;12.95;;;6.55;;
52858;SDS011;38721;53.098;6.596;2023-03-14T06:02:30;18.08;;;6.15;;
52858;SDS011;38721;53.098;6.596;2023-03-14T06:04:55;11.93;;;6.00;;
52858;SDS011;38721;53.098;6.596;2023-03-14T06:07:22;14.30;;;6.13;;
52858;SDS011;38721;53.098;6.596;2023-03-14T06:09:47;12.70;;;6.53;;
52858;SDS011;38721;53.098;6.596;2023-03-14T06:12:13;12.07;;;5.97;;
52858;SDS011;38721;53.098;6.596;2023-03-14T06:14:38;9.20;;;5.50;;
52858;SDS011;38721;53.098;6.596;2023-03-14T06:17:04;10.88;;;5.35;;
52858;SDS011;38721;53.098;6.596;2023-03-14T06:19:30;15.32;;;5.47;;
52858;SDS011;38721;53.098;6.596;2023-03-14T06:21:55;10.75;;;6.28;;
52858;SDS011;38721;53.098;6.596;2023-03-14T06:24:21;11.85;;;4.70;;
52858;SDS011;38721;53.098;6.596;2023-03-14T06:26:47;8.65;;;4.20;;
52858;SDS011;38721;53.098;6.596;2023-03-14T06:29:15;9.02;;;4.40;;
52858;SDS011;38721;53.098;6.596;2023-03-14T06:31:41;11.57;;;5.03;;
52858;SDS011;38721;53.098;6.596;2023-03-14T06:34:07;9.60;;;4.78;;
52858;SDS011;38721;53.098;6.596;2023-03-14T06:36:33;12.05;;;4.80;;
52858;SDS011;38721;53.098;6.596;2023-03-14T06:38:58;10.85;;;4.32;;
52858;SDS011;38721;53.098;6.596;2023-03-14T06:41:24;11.38;;;5.10;;
52858;SDS011;38721;53.098;6.596;2023-03-14T06:43:51;8.70;;;4.72;;
52858;SDS011;38721;53.098;6.596;2023-03-14T06:46:20;7.07;;;4.03;;
52858;SDS011;38721;53.098;6.596;2023-03-14T06:48:46;7.25;;;2.03;;
52858;SDS011;38721;53.098;6.596;2023-03-14T06:51:11;7.30;;;1.20;;
52858;SDS011;38721;53.098;6.596;2023-03-14T06:53:37;3.28;;;0.95;;
52858;SDS011;38721;53.098;6.596;2023-03-14T06:56:03;7.05;;;1.30;;
52858;SDS011;38721;53.098;6.596;2023-03-14T06:58:29;8.43;;;1.75;;
52858;SDS011;38721;53.098;6.596;2023-03-14T07:00:54;5.65;;;1.27;;
52858;SDS011;38721;53.098;6.596;2023-03-14T07:03:21;16.40;;;1.85;;
52858;SDS011;38721;53.098;6.596;2023-03-14T07:05:47;8.55;;;1.70;;
52858;SDS011;38721;53.098;6.596;2023-03-14T07:08:13;15.25;;;2.35;;
52858;SDS011;38721;53.098;6.596;2023-03-14T07:10:39;11.25;;;1.67;;
52858;SDS011;38721;53.098;6.596;2023-03-14T07:13:04;11.63;;;2.13;;
52858;SDS011;38721;53.098;6.596;2023-03-14T07:15:30;12.85;;;2.40;;
52858;SDS011;38721;53.098;6.596;2023-03-14T07:17:56;19.92;;;3.70;;
52858;SDS011;38721;53.098;6.596;2023-03-14T07:20:21;9.32;;;2.10;;
52858;SDS011;38721;53.098;6.596;2023-03-14T07:22:48;9.35;;;2.10;;
52858;SDS011;38721;53.098;6.596;2023-03-14T07:25:15;14.20;;;2.25;;
52858;SDS011;38721;53.098;6.596;2023-03-14T07:27:43;7.15;;;1.85;;
52858;SDS011;38721;53.098;6.596;2023-03-14T07:30:10;8.77;;;1.65;;
52858;SDS011;38721;53.098;6.596;2023-03-14T07:32:36;6.90;;;1.60;;
52858;SDS011;38721;53.098;6.596;2023-03-14T07:35:02;8.93;;;1.60;;
52858;SDS011;38721;53.098;6.596;2023-03-14T07:37:27;9.45;;;1.58;;
52858;SDS011;38721;53.098;6.596;2023-03-14T07:39:56;6.80;;;1.20;;
52858;SDS011;38721;53.098;6.596;2023-03-14T07:42:22;6.72;;;1.13;;
52858;SDS011;38721;53.098;6.596;2023-03-14T07:44:47;1.63;;;0.70;;
52858;SDS011;38721;53.098;6.596;2023-03-14T07:47:16;5.15;;;1.15;;
52858;SDS011;38721;53.098;6.596;2023-03-14T07:49:42;3.20;;;0.65;;
52858;SDS011;38721;53.098;6.596;2023-03-14T07:52:07;2.60;;;0.70;;
52858;SDS011;38721;53.098;6.596;2023-03-14T07:54:33;6.75;;;0.90;;
52858;SDS011;38721;53.098;6.596;2023-03-14T07:57:00;3.85;;;0.90;;
52858;SDS011;38721;53.098;6.596;2023-03-14T07:59:26;4.45;;;1.00;;
52858;SDS011;38721;53.098;6.596;2023-03-14T08:01:52;1.48;;;0.90;;
52858;SDS011;38721;53.098;6.596;2023-03-14T08:04:18;4.05;;;1.00;;
52858;SDS011;38721;53.098;6.596;2023-03-14T08:06:43;3.22;;;0.63;;
52858;SDS011;38721;53.098;6.596;2023-03-14T08:09:09;5.65;;;0.70;;
52858;SDS011;38721;53.098;6.596;2023-03-14T08:11:35;5.53;;;1.00;;
52858;SDS011;38721;53.098;6.596;2023-03-14T08:14:01;5.18;;;0.75;;
52858;SDS011;38721;53.098;6.596;2023-03-14T08:16:27;5.97;;;1.05;;
52858;SDS011;38721;53.098;6.596;2023-03-14T08:18:52;5.63;;;1.20;;
52858;SDS011;38721;53.098;6.596;2023-03-14T08:21:18;3.75;;;1.25;;
52858;SDS011;38721;53.098;6.596;2023-03-14T08:23:44;3.65;;;1.15;;
52858;SDS011;38721;53.098;6.596;2023-03-14T08:26:09;6.10;;;1.30;;
52858;SDS011;38721;53.098;6.596;2023-03-14T08:28:35;3.08;;;0.75;;
52858;SDS011;38721;53.098;6.596;2023-03-14T08:31:01;4.75;;;0.75;;
52858;SDS011;38721;53.098;6.596;2023-03-14T08:33:27;4.05;;;0.90;;
52858;SDS011;38721;53.098;6.596;2023-03-14T08:35:57;5.00;;;0.77;;
52858;SDS011;38721;53.098;6.596;2023-03-14T08:38:24;7.45;;;1.02;;
52858;SDS011;38721;53.098;6.596;2023-03-14T08:40:57;7.03;;;1.30;;
52858;SDS011;38721;53.098;6.596;2023-03-14T08:43:23;4.82;;;1.38;;
52858;SDS011;38721;53.098;6.596;2023-03-14T08:45:49;6.00;;;1.20;;
52858;SDS011;38721;53.098;6.596;2023-03-14T08:48:15;9.07;;;1.63;;
52858;SDS011;38721;53.098;6.596;2023-03-14T08:50:41;9.05;;;1.98;;
52858;SDS011;38721;53.098;6.596;2023-03-14T08:53:06;7.15;;;2.25;;
52858;SDS011;38721;53.098;6.596;2023-03-14T08:55:32;8.88;;;2.42;;
52858;SDS011;38721;53.098;6.596;2023-03-14T08:57:57;8.63;;;1.45;;
52858;SDS011;38721;53.098;6.596;2023-03-14T09:00:23;6.10;;;1.30;;
52858;SDS011;38721;53.098;6.596;2023-03-14T09:02:49;11.27;;;2.00;;
52858;SDS011;38721;53.098;6.596;2023-03-14T09:05:15;9.90;;;2.33;;
52858;SDS011;38721;53.098;6.596;2023-03-14T09:07:40;13.18;;;2.25;;
52858;SDS011;38721;53.098;6.596;2023-03-14T09:10:07;10.90;;;2.28;;
52858;SDS011;38721;53.098;6.596;2023-03-14T09:12:33;17.90;;;2.55;;
52858;SDS011;38721;53.098;6.596;2023-03-14T09:14:59;14.20;;;2.65;;
52858;SDS011;38721;53.098;6.596;2023-03-14T09:17:25;18.88;;;2.78;;
52858;SDS011;38721;53.098;6.596;2023-03-14T09:19:50;11.57;;;2.08;;
52858;SDS011;38721;53.098;6.596;2023-03-14T09:22:16;13.23;;;2.88;;
52858;SDS011;38721;53.098;6.596;2023-03-14T09:24:42;16.88;;;3.10;;
52858;SDS011;38721;53.098;6.596;2023-03-14T09:27:08;18.23;;;3.67;;
52858;SDS011;38721;53.098;6.596;2023-03-14T09:29:34;18.42;;;3.30;;
52858;SDS011;38721;53.098;6.596;2023-03-14T09:31:59;18.60;;;3.25;;
52858;SDS011;38721;53.098;6.596;2023-03-14T09:34:26;22.45;;;3.78;;
52858;SDS011;38721;53.098;6.596;2023-03-14T09:36:51;17.67;;;3.63;;
52858;SDS011;38721;53.098;6.596;2023-03-14T09:39:17;22.58;;;3.70;;
52858;SDS011;38721;53.098;6.596;2023-03-14T09:41:44;19.70;;;3.15;;
52858;SDS011;38721;53.098;6.596;2023-03-14T09:46:52;22.75;;;3.63;;
52858;SDS011;38721;53.098;6.596;2023-03-14T09:49:27;25.25;;;4.13;;
52858;SDS011;38721;53.098;6.596;2023-03-14T09:52:00;17.77;;;3.22;;
52858;SDS011;38721;53.098;6.596;2023-03-14T09:57:09;20.92;;;3.08;;
52858;SDS011;38721;53.098;6.596;2023-03-14T09:59:38;20.75;;;4.88;;
52858;SDS011;38721;53.098;6.596;2023-03-14T10:02:16;16.60;;;3.10;;
52858;SDS011;38721;53.098;6.596;2023-03-14T10:04:47;19.30;;;3.78;;
52858;SDS011;38721;53.098;6.596;2023-03-14T10:07:15;15.75;;;3.25;;
52858;SDS011;38721;53.098;6.596;2023-03-14T10:09:49;18.80;;;3.40;;
52858;SDS011;38721;53.098;6.596;2023-03-14T10:12:16;14.38;;;2.55;;
52858;SDS011;38721;53.098;6.596;2023-03-14T10:14:50;27.95;;;3.53;;
52858;SDS011;38721;53.098;6.596;2023-03-14T10:17:19;20.08;;;4.40;;
52858;SDS011;38721;53.098;6.596;2023-03-14T10:19:58;19.60;;;3.90;;
52858;SDS011;38721;53.098;6.596;2023-03-14T10:22:26;19.20;;;3.90;;
52858;SDS011;38721;53.098;6.596;2023-03-14T10:24:56;20.00;;;3.92;;
52858;SDS011;38721;53.098;6.596;2023-03-14T10:27:32;22.25;;;3.88;;
52858;SDS011;38721;53.098;6.596;2023-03-14T10:30:04;15.05;;;3.25;;
52858;SDS011;38721;53.098;6.596;2023-03-14T10:35:07;18.73;;;3.15;;
52858;SDS011;38721;53.098;6.596;2023-03-14T10:37:54;13.85;;;2.72;;
52858;SDS011;38721;53.098;6.596;2023-03-14T10:40:24;15.70;;;3.30;;
52858;SDS011;38721;53.098;6.596;2023-03-14T10:43:04;18.83;;;3.60;;
52858;SDS011;38721;53.098;6.596;2023-03-14T10:45:33;18.80;;;3.55;;
52858;SDS011;38721;53.098;6.596;2023-03-14T10:48:18;12.10;;;2.97;;
52858;SDS011;38721;53.098;6.596;2023-03-14T10:51:02;13.73;;;2.88;;
52858;SDS011;38721;53.098;6.596;2023-03-14T10:53:49;11.75;;;2.80;;
52858;SDS011;38721;53.098;6.596;2023-03-14T10:56:21;13.15;;;2.97;;
52858;SDS011;38721;53.098;6.596;2023-03-14T10:58:57;15.48;;;3.00;;
52858;SDS011;38721;53.098;6.596;2023-03-14T11:01:29;17.55;;;3.00;;
52858;SDS011;38721;53.098;6.596;2023-03-14T11:06:50;14.90;;;2.42;;
52858;SDS011;38721;53.098;6.596;2023-03-14T11:14:44;10.75;;;2.40;;
52858;SDS011;38721;53.098;6.596;2023-03-14T11:17:23;9.20;;;1.60;;
52858;SDS011;38721;53.098;6.596;2023-03-14T11:20:26;10.10;;;1.80;;
52858;SDS011;38721;53.098;6.596;2023-03-14T11:22:59;11.10;;;2.08;;
52858;SDS011;38721;53.098;6.596;2023-03-14T11:28:23;8.68;;;1.83;;
52858;SDS011;38721;53.098;6.596;2023-03-14T11:31:31;7.28;;;2.25;;
52858;SDS011;38721;53.098;6.596;2023-03-14T11:39:13;12.40;;;2.10;;
52858;SDS011;38721;53.098;6.596;2023-03-14T11:41:43;9.68;;;2.13;;
52858;SDS011;38721;53.098;6.596;2023-03-14T11:44:18;9.88;;;2.05;;
52858;SDS011;38721;53.098;6.596;2023-03-14T11:46:52;7.65;;;1.90;;
52858;SDS011;38721;53.098;6.596;2023-03-14T11:52:14;8.57;;;1.63;;
52858;SDS011;38721;53.098;6.596;2023-03-14T11:55:13;6.72;;;1.70;;
52858;SDS011;38721;53.098;6.596;2023-03-14T11:57:53;5.75;;;1.75;;
52858;SDS011;38721;53.098;6.596;2023-03-14T12:00:26;7.25;;;1.73;;
52858;SDS011;38721;53.098;6.596;2023-03-14T12:02:57;8.70;;;1.92;;
52858;SDS011;38721;53.098;6.596;2023-03-14T12:13:58;7.55;;;2.05;;
52858;SDS011;38721;53.098;6.596;2023-03-14T12:19:44;9.82;;;1.67;;
52858;SDS011;38721;53.098;6.596;2023-03-14T12:24:44;6.53;;;1.52;;
52858;SDS011;38721;53.098;6.596;2023-03-14T12:27:37;6.43;;;1.40;;
52858;SDS011;38721;53.098;6.596;2023-03-14T12:30:14;7.35;;;1.60;;
52858;SDS011;38721;53.098;6.596;2023-03-14T12:46:59;6.07;;;1.70;;
52858;SDS011;38721;53.098;6.596;2023-03-14T12:49:52;4.47;;;1.20;;
52858;SDS011;38721;53.098;6.596;2023-03-14T12:52:33;4.68;;;1.55;;
52858;SDS011;38721;53.098;6.596;2023-03-14T12:55:10;10.13;;;1.75;;
52858;SDS011;38721;53.098;6.596;2023-03-14T12:57:59;9.35;;;2.10;;
52858;SDS011;38721;53.098;6.596;2023-03-14T13:00:37;14.05;;;2.53;;
52858;SDS011;38721;53.098;6.596;2023-03-14T13:05:53;9.43;;;1.52;;
52858;SDS011;38721;53.098;6.596;2023-03-14T13:08:43;10.85;;;1.73;;
52858;SDS011;38721;53.098;6.596;2023-03-14T13:11:11;6.90;;;1.70;;
52858;SDS011;38721;53.098;6.596;2023-03-14T13:13:42;7.95;;;1.80;;
52858;SDS011;38721;53.098;6.596;2023-03-14T13:16:16;8.55;;;1.85;;
52858;SDS011;38721;53.098;6.596;2023-03-14T13:18:49;12.13;;;1.85;;
52858;SDS011;38721;53.098;6.596;2023-03-14T13:21:25;9.90;;;2.20;;
52858;SDS011;38721;53.098;6.596;2023-03-14T13:23:54;11.80;;;2.20;;
52858;SDS011;38721;53.098;6.596;2023-03-14T13:26:19;9.20;;;2.13;;
52858;SDS011;38721;53.098;6.596;2023-03-14T13:28:45;10.10;;;1.75;;
52858;SDS011;38721;53.098;6.596;2023-03-14T13:31:18;9.75;;;1.80;;
52858;SDS011;38721;53.098;6.596;2023-03-14T13:33:55;7.82;;;1.60;;
52858;SDS011;38721;53.098;6.596;2023-03-14T13:36:24;6.97;;;1.63;;
52858;SDS011;38721;53.098;6.596;2023-03-14T13:38:55;6.95;;;1.55;;
52858;SDS011;38721;53.098;6.596;2023-03-14T13:41:25;9.23;;;1.65;;
52858;SDS011;38721;53.098;6.596;2023-03-14T13:43:51;6.85;;;1.77;;
52858;SDS011;38721;53.098;6.596;2023-03-14T13:46:41;10.45;;;1.90;;
52858;SDS011;38721;53.098;6.596;2023-03-14T13:49:10;10.07;;;1.98;;
52858;SDS011;38721;53.098;6.596;2023-03-14T13:51:41;5.78;;;1.42;;
52858;SDS011;38721;53.098;6.596;2023-03-14T13:54:13;7.35;;;1.50;;
52858;SDS011;38721;53.098;6.596;2023-03-14T13:56:40;6.70;;;1.58;;
52858;SDS011;38721;53.098;6.596;2023-03-14T13:59:22;8.18;;;1.83;;
52858;SDS011;38721;53.098;6.596;2023-03-14T14:01:48;10.07;;;1.77;;
52858;SDS011;38721;53.098;6.596;2023-03-14T14:04:16;8.70;;;2.05;;
52858;SDS011;38721;53.098;6.596;2023-03-14T14:06:45;9.23;;;2.08;;
52858;SDS011;38721;53.098;6.596;2023-03-14T14:09:15;8.38;;;1.60;;
52858;SDS011;38721;53.098;6.596;2023-03-14T14:14:14;5.00;;;1.38;;
52858;SDS011;38721;53.098;6.596;2023-03-14T14:17:02;8.00;;;1.60;;
52858;SDS011;38721;53.098;6.596;2023-03-14T14:19:32;7.68;;;1.98;;
52858;SDS011;38721;53.098;6.596;2023-03-14T14:21:59;5.55;;;1.25;;
52858;SDS011;38721;53.098;6.596;2023-03-14T14:24:29;5.97;;;1.25;;
52858;SDS011;38721;53.098;6.596;2023-03-14T14:27:01;6.03;;;1.52;;
52858;SDS011;38721;53.098;6.596;2023-03-14T14:30:00;5.40;;;1.75;;
52858;SDS011;38721;53.098;6.596;2023-03-14T14:32:26;8.32;;;1.63;;
52858;SDS011;38721;53.098;6.596;2023-03-14T14:34:59;6.75;;;1.55;;
52858;SDS011;38721;53.098;6.596;2023-03-14T14:37:33;7.70;;;1.48;;
52858;SDS011;38721;53.098;6.596;2023-03-14T14:42:51;8.43;;;1.73;;
52858;SDS011;38721;53.098;6.596;2023-03-14T14:45:18;11.50;;;2.30;;
52858;SDS011;38721;53.098;6.596;2023-03-14T14:47:52;13.90;;;2.03;;
52858;SDS011;38721;53.098;6.596;2023-03-14T14:50:30;10.57;;;1.70;;
52858;SDS011;38721;53.098;6.596;2023-03-14T14:56:03;11.35;;;2.10;;
52858;SDS011;38721;53.098;6.596;2023-03-14T14:58:35;9.70;;;1.67;;
52858;SDS011;38721;53.098;6.596;2023-03-14T15:01:07;11.73;;;2.20;;
52858;SDS011;38721;53.098;6.596;2023-03-14T15:03:41;9.90;;;2.03;;
52858;SDS011;38721;53.098;6.596;2023-03-14T15:06:08;10.15;;;2.72;;
52858;SDS011;38721;53.098;6.596;2023-03-14T15:08:36;10.38;;;2.03;;
52858;SDS011;38721;53.098;6.596;2023-03-14T15:11:02;6.35;;;2.13;;
52858;SDS011;38721;53.098;6.596;2023-03-14T15:13:28;8.93;;;1.92;;
52858;SDS011;38721;53.098;6.596;2023-03-14T15:15:53;5.65;;;1.50;;
52858;SDS011;38721;53.098;6.596;2023-03-14T15:18:27;8.40;;;1.60;;
52858;SDS011;38721;53.098;6.596;2023-03-14T15:20:58;9.07;;;1.50;;
52858;SDS011;38721;53.098;6.596;2023-03-14T15:23:25;4.00;;;0.95;;
52858;SDS011;38721;53.098;6.596;2023-03-14T15:25:50;4.53;;;1.20;;
52858;SDS011;38721;53.098;6.596;2023-03-14T15:28:34;6.80;;;1.65;;
52858;SDS011;38721;53.098;6.596;2023-03-14T15:31:00;6.43;;;1.92;;
52858;SDS011;38721;53.098;6.596;2023-03-14T15:33:25;10.40;;;1.73;;
52858;SDS011;38721;53.098;6.596;2023-03-14T15:35:51;8.90;;;1.90;;
52858;SDS011;38721;53.098;6.596;2023-03-14T15:38:18;6.80;;;1.60;;
52858;SDS011;38721;53.098;6.596;2023-03-14T15:40:47;6.65;;;1.60;;
52858;SDS011;38721;53.098;6.596;2023-03-14T15:43:16;10.02;;;2.03;;
52858;SDS011;38721;53.098;6.596;2023-03-14T15:45:43;13.65;;;2.63;;
52858;SDS011;38721;53.098;6.596;2023-03-14T15:48:15;8.63;;;1.83;;
52858;SDS011;38721;53.098;6.596;2023-03-14T15:50:43;9.20;;;1.67;;
52858;SDS011;38721;53.098;6.596;2023-03-14T15:53:09;8.45;;;1.83;;
52858;SDS011;38721;53.098;6.596;2023-03-14T15:55:36;8.60;;;1.40;;
52858;SDS011;38721;53.098;6.596;2023-03-14T15:58:01;8.00;;;1.90;;
52858;SDS011;38721;53.098;6.596;2023-03-14T16:00:28;9.30;;;2.03;;
52858;SDS011;38721;53.098;6.596;2023-03-14T16:02:54;8.07;;;1.70;;
52858;SDS011;38721;53.098;6.596;2023-03-14T16:05:20;7.95;;;1.52;;
52858;SDS011;38721;53.098;6.596;2023-03-14T16:07:46;4.47;;;1.50;;
52858;SDS011;38721;53.098;6.596;2023-03-14T16:10:13;11.50;;;1.63;;